sensor_id;sensor_type;location;lat;lon;timestamp;temperature;humidity
52963;DHT22;38827;53.024;6.596;2022-10-31T00:01:26;13.10;85.10
52963;DHT22;38827;53.024;6.596;2022-10-31T00:03:52;13.10;85.10
52963;DHT22;38827;53.024;6.596;2022-10-31T00:06:18;13.10;85.30
52963;DHT22;38827;53.024;6.596;2022-10-31T00:08:46;13.00;85.30
52963;DHT22;38827;53.024;6.596;2022-10-31T00:11:12;13.00;85.60
52963;DHT22;38827;53.024;6.596;2022-10-31T00:13:37;13.00;85.50
52963;DHT22;38827;53.024;6.596;2022-10-31T00:16:03;12.90;85.60
52963;DHT22;38827;53.024;6.596;2022-10-31T00:18:29;12.90;85.80
52963;DHT22;38827;53.024;6.596;2022-10-31T00:21:02;12.90;85.70
52963;DHT22;38827;53.024;6.596;2022-10-31T00:23:27;12.90;85.70
52963;DHT22;38827;53.024;6.596;2022-10-31T00:25:54;12.90;85.80
52963;DHT22;38827;53.024;6.596;2022-10-31T00:28:19;12.80;85.80
52963;DHT22;38827;53.024;6.596;2022-10-31T00:30:45;12.80;85.90
52963;DHT22;38827;53.024;6.596;2022-10-31T00:33:10;12.80;85.90
52963;DHT22;38827;53.024;6.596;2022-10-31T00:35:36;12.70;86.00
52963;DHT22;38827;53.024;6.596;2022-10-31T00:38:02;12.70;86.10
52963;DHT22;38827;53.024;6.596;2022-10-31T00:40:27;12.70;86.20
52963;DHT22;38827;53.024;6.596;2022-10-31T00:42:53;12.70;86.30
52963;DHT22;38827;53.024;6.596;2022-10-31T00:45:19;12.70;86.10
52963;DHT22;38827;53.024;6.596;2022-10-31T00:47:51;12.60;86.30
52963;DHT22;38827;53.024;6.596;2022-10-31T00:50:17;12.60;86.30
52963;DHT22;38827;53.024;6.596;2022-10-31T00:52:51;12.60;86.20
52963;DHT22;38827;53.024;6.596;2022-10-31T00:55:19;12.60;86.30
52963;DHT22;38827;53.024;6.596;2022-10-31T00:57:48;12.60;86.30
52963;DHT22;38827;53.024;6.596;2022-10-31T01:00:14;12.60;86.50
52963;DHT22;38827;53.024;6.596;2022-10-31T01:02:40;12.50;86.60
52963;DHT22;38827;53.024;6.596;2022-10-31T01:05:05;12.50;86.50
52963;DHT22;38827;53.024;6.596;2022-10-31T01:07:31;12.50;86.60
52963;DHT22;38827;53.024;6.596;2022-10-31T01:09:57;12.50;86.50
52963;DHT22;38827;53.024;6.596;2022-10-31T01:12:22;12.50;86.50
52963;DHT22;38827;53.024;6.596;2022-10-31T01:14:48;12.50;86.50
52963;DHT22;38827;53.024;6.596;2022-10-31T01:17:14;12.50;86.60
52963;DHT22;38827;53.024;6.596;2022-10-31T01:19:40;12.50;86.70
52963;DHT22;38827;53.024;6.596;2022-10-31T01:22:05;12.50;86.70
52963;DHT22;38827;53.024;6.596;2022-10-31T01:24:31;12.50;86.70
52963;DHT22;38827;53.024;6.596;2022-10-31T01:26:57;12.50;86.70
52963;DHT22;38827;53.024;6.596;2022-10-31T01:29:23;12.50;86.70
52963;DHT22;38827;53.024;6.596;2022-10-31T01:31:48;12.50;86.80
52963;DHT22;38827;53.024;6.596;2022-10-31T01:34:16;12.50;86.70
52963;DHT22;38827;53.024;6.596;2022-10-31T01:36:42;12.50;86.60
52963;DHT22;38827;53.024;6.596;2022-10-31T01:39:13;12.50;86.60
52963;DHT22;38827;53.024;6.596;2022-10-31T01:41:42;12.50;86.50
52963;DHT22;38827;53.024;6.596;2022-10-31T01:46:44;12.50;86.40
52963;DHT22;38827;53.024;6.596;2022-10-31T01:54:58;12.50;86.20
52963;DHT22;38827;53.024;6.596;2022-10-31T01:57:25;12.50;86.20
52963;DHT22;38827;53.024;6.596;2022-10-31T01:59:57;12.50;86.20
52963;DHT22;38827;53.024;6.596;2022-10-31T02:02:25;12.50;86.00
52963;DHT22;38827;53.024;6.596;2022-10-31T02:04:53;12.50;86.00
52963;DHT22;38827;53.024;6.596;2022-10-31T02:07:36;12.40;86.00
52963;DHT22;38827;53.024;6.596;2022-10-31T02:10:03;12.40;85.90
52963;DHT22;38827;53.024;6.596;2022-10-31T02:12:31;12.40;85.90
52963;DHT22;38827;53.024;6.596;2022-10-31T02:15:00;12.40;85.90
52963;DHT22;38827;53.024;6.596;2022-10-31T02:22:36;12.30;86.00
52963;DHT22;38827;53.024;6.596;2022-10-31T02:25:35;12.30;85.90
52963;DHT22;38827;53.024;6.596;2022-10-31T02:28:33;12.30;85.70
52963;DHT22;38827;53.024;6.596;2022-10-31T02:33:53;12.30;85.90
52963;DHT22;38827;53.024;6.596;2022-10-31T02:36:28;12.30;86.00
52963;DHT22;38827;53.024;6.596;2022-10-31T02:47:01;12.20;85.80
52963;DHT22;38827;53.024;6.596;2022-10-31T02:52:01;12.10;85.90
52963;DHT22;38827;53.024;6.596;2022-10-31T02:54:28;12.10;85.80
52963;DHT22;38827;53.024;6.596;2022-10-31T02:57:04;12.10;85.80
52963;DHT22;38827;53.024;6.596;2022-10-31T02:59:38;12.00;85.40
52963;DHT22;38827;53.024;6.596;2022-10-31T03:13:38;11.90;85.90
52963;DHT22;38827;53.024;6.596;2022-10-31T03:18:51;11.90;86.10
52963;DHT22;38827;53.024;6.596;2022-10-31T03:21:39;11.90;86.20
52963;DHT22;38827;53.024;6.596;2022-10-31T03:24:09;11.80;86.10
52963;DHT22;38827;53.024;6.596;2022-10-31T03:26:37;11.80;86.20
52963;DHT22;38827;53.024;6.596;2022-10-31T03:29:09;11.70;86.30
52963;DHT22;38827;53.024;6.596;2022-10-31T03:32:06;11.70;86.40
52963;DHT22;38827;53.024;6.596;2022-10-31T03:34:34;11.70;86.30
52963;DHT22;38827;53.024;6.596;2022-10-31T03:37:05;11.70;86.30
52963;DHT22;38827;53.024;6.596;2022-10-31T03:39:32;11.60;86.40
52963;DHT22;38827;53.024;6.596;2022-10-31T03:42:09;11.60;86.40
52963;DHT22;38827;53.024;6.596;2022-10-31T03:44:35;11.60;86.40
52963;DHT22;38827;53.024;6.596;2022-10-31T03:47:03;11.60;86.30
52963;DHT22;38827;53.024;6.596;2022-10-31T03:49:30;11.50;86.30
52963;DHT22;38827;53.024;6.596;2022-10-31T03:52:02;11.50;86.30
52963;DHT22;38827;53.024;6.596;2022-10-31T03:54:46;11.50;86.30
52963;DHT22;38827;53.024;6.596;2022-10-31T03:57:24;11.40;86.40
52963;DHT22;38827;53.024;6.596;2022-10-31T04:00:05;11.40;86.50
52963;DHT22;38827;53.024;6.596;2022-10-31T04:02:32;11.30;86.50
52963;DHT22;38827;53.024;6.596;2022-10-31T04:04:59;11.30;86.50
52963;DHT22;38827;53.024;6.596;2022-10-31T04:07:31;11.30;86.60
52963;DHT22;38827;53.024;6.596;2022-10-31T04:10:00;11.30;86.70
52963;DHT22;38827;53.024;6.596;2022-10-31T04:12:32;11.20;86.70
52963;DHT22;38827;53.024;6.596;2022-10-31T04:14:59;11.20;86.70
52963;DHT22;38827;53.024;6.596;2022-10-31T04:17:27;11.20;86.80
52963;DHT22;38827;53.024;6.596;2022-10-31T04:19:55;11.20;86.80
52963;DHT22;38827;53.024;6.596;2022-10-31T04:22:20;11.10;86.80
52963;DHT22;38827;53.024;6.596;2022-10-31T04:24:46;11.10;86.80
52963;DHT22;38827;53.024;6.596;2022-10-31T04:27:12;11.10;86.80
52963;DHT22;38827;53.024;6.596;2022-10-31T04:29:37;11.10;86.80
52963;DHT22;38827;53.024;6.596;2022-10-31T04:32:03;11.00;86.80
52963;DHT22;38827;53.024;6.596;2022-10-31T04:34:29;11.00;86.80
52963;DHT22;38827;53.024;6.596;2022-10-31T04:36:54;11.00;86.90
52963;DHT22;38827;53.024;6.596;2022-10-31T04:39:20;10.90;86.80
52963;DHT22;38827;53.024;6.596;2022-10-31T04:41:45;10.90;86.90
52963;DHT22;38827;53.024;6.596;2022-10-31T04:44:11;10.80;86.90
52963;DHT22;38827;53.024;6.596;2022-10-31T04:46:37;10.80;87.10
52963;DHT22;38827;53.024;6.596;2022-10-31T04:49:02;10.80;87.10
52963;DHT22;38827;53.024;6.596;2022-10-31T04:51:28;10.80;87.10
52963;DHT22;38827;53.024;6.596;2022-10-31T04:53:53;10.80;87.20
52963;DHT22;38827;53.024;6.596;2022-10-31T04:56:19;10.70;87.10
52963;DHT22;38827;53.024;6.596;2022-10-31T04:58:45;10.70;87.20
52963;DHT22;38827;53.024;6.596;2022-10-31T05:01:10;10.70;87.10
52963;DHT22;38827;53.024;6.596;2022-10-31T05:03:36;10.70;87.20
52963;DHT22;38827;53.024;6.596;2022-10-31T05:06:05;10.60;87.00
52963;DHT22;38827;53.024;6.596;2022-10-31T05:08:30;10.60;87.10
52963;DHT22;38827;53.024;6.596;2022-10-31T05:11:02;10.50;87.10
52963;DHT22;38827;53.024;6.596;2022-10-31T05:13:31;10.50;87.20
52963;DHT22;38827;53.024;6.596;2022-10-31T05:15:57;10.50;87.00
52963;DHT22;38827;53.024;6.596;2022-10-31T05:18:23;10.40;87.00
52963;DHT22;38827;53.024;6.596;2022-10-31T05:20:51;10.40;87.00
52963;DHT22;38827;53.024;6.596;2022-10-31T05:23:17;10.30;87.10
52963;DHT22;38827;53.024;6.596;2022-10-31T05:25:42;10.30;87.00
52963;DHT22;38827;53.024;6.596;2022-10-31T05:28:08;10.30;87.00
52963;DHT22;38827;53.024;6.596;2022-10-31T05:30:34;10.30;87.00
52963;DHT22;38827;53.024;6.596;2022-10-31T05:33:00;10.20;87.10
52963;DHT22;38827;53.024;6.596;2022-10-31T05:35:30;10.20;86.90
52963;DHT22;38827;53.024;6.596;2022-10-31T05:37:57;10.10;87.00
52963;DHT22;38827;53.024;6.596;2022-10-31T05:40:23;10.10;87.00
52963;DHT22;38827;53.024;6.596;2022-10-31T05:42:54;10.00;87.10
52963;DHT22;38827;53.024;6.596;2022-10-31T05:45:21;10.00;87.30
52963;DHT22;38827;53.024;6.596;2022-10-31T05:47:58;10.00;87.40
52963;DHT22;38827;53.024;6.596;2022-10-31T05:50:28;10.00;87.40
52963;DHT22;38827;53.024;6.596;2022-10-31T05:52:59;10.00;87.50
52963;DHT22;38827;53.024;6.596;2022-10-31T05:55:26;9.90;87.60
52963;DHT22;38827;53.024;6.596;2022-10-31T05:57:53;9.90;87.60
52963;DHT22;38827;53.024;6.596;2022-10-31T06:00:19;9.90;87.60
52963;DHT22;38827;53.024;6.596;2022-10-31T06:02:45;9.90;87.30
52963;DHT22;38827;53.024;6.596;2022-10-31T06:05:15;9.80;87.70
52963;DHT22;38827;53.024;6.596;2022-10-31T06:07:49;9.90;87.70
52963;DHT22;38827;53.024;6.596;2022-10-31T06:10:15;9.90;87.50
52963;DHT22;38827;53.024;6.596;2022-10-31T06:12:41;9.80;87.50
52963;DHT22;38827;53.024;6.596;2022-10-31T06:15:08;9.70;87.60
52963;DHT22;38827;53.024;6.596;2022-10-31T06:17:34;9.70;87.70
52963;DHT22;38827;53.024;6.596;2022-10-31T06:20:00;9.70;87.80
52963;DHT22;38827;53.024;6.596;2022-10-31T06:22:26;9.70;87.70
52963;DHT22;38827;53.024;6.596;2022-10-31T06:24:52;9.70;87.80
52963;DHT22;38827;53.024;6.596;2022-10-31T06:27:18;9.70;87.70
52963;DHT22;38827;53.024;6.596;2022-10-31T06:29:43;9.70;87.80
52963;DHT22;38827;53.024;6.596;2022-10-31T06:32:12;9.70;87.80
52963;DHT22;38827;53.024;6.596;2022-10-31T06:34:38;9.70;87.70
52963;DHT22;38827;53.024;6.596;2022-10-31T06:37:06;9.70;87.50
52963;DHT22;38827;53.024;6.596;2022-10-31T06:39:32;9.70;87.50
52963;DHT22;38827;53.024;6.596;2022-10-31T06:41:58;9.70;87.60
52963;DHT22;38827;53.024;6.596;2022-10-31T06:44:24;9.70;87.60
52963;DHT22;38827;53.024;6.596;2022-10-31T06:46:49;9.70;87.50
52963;DHT22;38827;53.024;6.596;2022-10-31T06:49:15;9.70;87.50
52963;DHT22;38827;53.024;6.596;2022-10-31T06:51:41;9.70;87.40
52963;DHT22;38827;53.024;6.596;2022-10-31T06:54:07;9.70;87.40
52963;DHT22;38827;53.024;6.596;2022-10-31T06:56:33;9.70;87.50
52963;DHT22;38827;53.024;6.596;2022-10-31T06:58:59;9.80;87.50
52963;DHT22;38827;53.024;6.596;2022-10-31T07:01:25;9.80;87.50
52963;DHT22;38827;53.024;6.596;2022-10-31T07:03:50;9.80;87.50
52963;DHT22;38827;53.024;6.596;2022-10-31T07:06:16;9.80;87.40
52963;DHT22;38827;53.024;6.596;2022-10-31T07:08:41;9.90;87.50
52963;DHT22;38827;53.024;6.596;2022-10-31T07:11:07;9.90;87.50
52963;DHT22;38827;53.024;6.596;2022-10-31T07:13:33;9.90;87.40
52963;DHT22;38827;53.024;6.596;2022-10-31T07:16:03;9.90;87.40
52963;DHT22;38827;53.024;6.596;2022-10-31T07:18:29;10.00;87.40
52963;DHT22;38827;53.024;6.596;2022-10-31T07:20:55;10.00;87.30
52963;DHT22;38827;53.024;6.596;2022-10-31T07:23:21;10.00;87.30
52963;DHT22;38827;53.024;6.596;2022-10-31T07:25:47;10.00;87.20
52963;DHT22;38827;53.024;6.596;2022-10-31T07:28:13;10.10;87.20
52963;DHT22;38827;53.024;6.596;2022-10-31T07:30:38;10.10;87.20
52963;DHT22;38827;53.024;6.596;2022-10-31T07:33:05;10.20;87.40
52963;DHT22;38827;53.024;6.596;2022-10-31T07:35:31;10.20;87.40
52963;DHT22;38827;53.024;6.596;2022-10-31T07:37:57;10.40;87.20
52963;DHT22;38827;53.024;6.596;2022-10-31T07:40:24;10.50;87.10
52963;DHT22;38827;53.024;6.596;2022-10-31T07:42:51;10.60;87.10
52963;DHT22;38827;53.024;6.596;2022-10-31T07:45:19;10.90;86.90
52963;DHT22;38827;53.024;6.596;2022-10-31T07:50:21;11.50;86.20
52963;DHT22;38827;53.024;6.596;2022-10-31T07:52:47;11.90;85.40
52963;DHT22;38827;53.024;6.596;2022-10-31T07:55:14;12.30;84.30
52963;DHT22;38827;53.024;6.596;2022-10-31T07:57:40;12.90;83.10
52963;DHT22;38827;53.024;6.596;2022-10-31T08:00:08;13.70;81.10
52963;DHT22;38827;53.024;6.596;2022-10-31T08:02:34;14.40;78.40
52963;DHT22;38827;53.024;6.596;2022-10-31T08:05:00;15.00;76.30
52963;DHT22;38827;53.024;6.596;2022-10-31T08:07:27;15.50;74.40
52963;DHT22;38827;53.024;6.596;2022-10-31T08:09:54;15.90;72.90
52963;DHT22;38827;53.024;6.596;2022-10-31T08:12:20;16.40;71.70
52963;DHT22;38827;53.024;6.596;2022-10-31T08:14:46;16.90;70.50
52963;DHT22;38827;53.024;6.596;2022-10-31T08:17:11;17.40;68.90
52963;DHT22;38827;53.024;6.596;2022-10-31T08:19:37;17.90;67.70
52963;DHT22;38827;53.024;6.596;2022-10-31T08:22:03;18.60;66.30
52963;DHT22;38827;53.024;6.596;2022-10-31T08:24:28;19.10;64.50
52963;DHT22;38827;53.024;6.596;2022-10-31T08:26:54;19.70;63.00
52963;DHT22;38827;53.024;6.596;2022-10-31T08:29:20;20.00;61.70
52963;DHT22;38827;53.024;6.596;2022-10-31T08:31:46;20.10;61.30
52963;DHT22;38827;53.024;6.596;2022-10-31T08:34:12;20.10;61.30
52963;DHT22;38827;53.024;6.596;2022-10-31T08:36:37;20.20;62.10
52963;DHT22;38827;53.024;6.596;2022-10-31T08:39:03;20.50;60.50
52963;DHT22;38827;53.024;6.596;2022-10-31T08:41:29;20.90;59.40
52963;DHT22;38827;53.024;6.596;2022-10-31T08:43:55;21.20;58.50
52963;DHT22;38827;53.024;6.596;2022-10-31T08:46:21;21.50;57.00
52963;DHT22;38827;53.024;6.596;2022-10-31T08:48:50;21.40;56.20
52963;DHT22;38827;53.024;6.596;2022-10-31T08:51:16;21.10;56.70
52963;DHT22;38827;53.024;6.596;2022-10-31T08:53:41;20.80;57.10
52963;DHT22;38827;53.024;6.596;2022-10-31T08:56:07;20.40;57.60
52963;DHT22;38827;53.024;6.596;2022-10-31T08:58:32;20.00;58.00
52963;DHT22;38827;53.024;6.596;2022-10-31T09:01:00;19.60;58.80
52963;DHT22;38827;53.024;6.596;2022-10-31T09:03:28;19.30;59.50
52963;DHT22;38827;53.024;6.596;2022-10-31T09:05:56;19.10;59.70
52963;DHT22;38827;53.024;6.596;2022-10-31T09:08:22;19.20;59.60
52963;DHT22;38827;53.024;6.596;2022-10-31T09:10:48;19.20;59.60
52963;DHT22;38827;53.024;6.596;2022-10-31T09:13:16;19.30;59.60
52963;DHT22;38827;53.024;6.596;2022-10-31T09:15:44;19.40;59.50
52963;DHT22;38827;53.024;6.596;2022-10-31T09:18:11;19.50;59.20
52963;DHT22;38827;53.024;6.596;2022-10-31T09:20:38;19.50;59.60
52963;DHT22;38827;53.024;6.596;2022-10-31T09:23:15;19.60;59.50
52963;DHT22;38827;53.024;6.596;2022-10-31T09:25:42;20.00;58.80
52963;DHT22;38827;53.024;6.596;2022-10-31T09:28:11;20.30;58.50
52963;DHT22;38827;53.024;6.596;2022-10-31T09:30:37;20.60;57.30
52963;DHT22;38827;53.024;6.596;2022-10-31T09:33:05;20.70;56.90
52963;DHT22;38827;53.024;6.596;2022-10-31T09:35:31;20.80;56.80
52963;DHT22;38827;53.024;6.596;2022-10-31T09:37:59;20.80;56.90
52963;DHT22;38827;53.024;6.596;2022-10-31T09:40:40;21.00;56.60
52963;DHT22;38827;53.024;6.596;2022-10-31T09:54:05;19.70;57.80
52963;DHT22;38827;53.024;6.596;2022-10-31T09:56:33;19.20;58.80
52963;DHT22;38827;53.024;6.596;2022-10-31T09:59:03;18.90;60.00
52963;DHT22;38827;53.024;6.596;2022-10-31T10:01:34;19.00;60.00
52963;DHT22;38827;53.024;6.596;2022-10-31T10:07:35;19.40;59.10
52963;DHT22;38827;53.024;6.596;2022-10-31T10:15:34;20.60;57.30
52963;DHT22;38827;53.024;6.596;2022-10-31T10:18:18;20.60;57.30
52963;DHT22;38827;53.024;6.596;2022-10-31T10:21:06;20.50;57.10
52963;DHT22;38827;53.024;6.596;2022-10-31T10:26:17;19.60;58.40
52963;DHT22;38827;53.024;6.596;2022-10-31T10:28:57;19.10;59.40
52963;DHT22;38827;53.024;6.596;2022-10-31T10:31:32;18.80;60.30
52963;DHT22;38827;53.024;6.596;2022-10-31T10:39:37;18.70;61.40
52963;DHT22;38827;53.024;6.596;2022-10-31T10:42:23;18.60;61.40
52963;DHT22;38827;53.024;6.596;2022-10-31T10:45:17;18.50;61.10
52963;DHT22;38827;53.024;6.596;2022-10-31T10:48:36;18.30;61.90
52963;DHT22;38827;53.024;6.596;2022-10-31T10:51:06;18.20;62.30
52963;DHT22;38827;53.024;6.596;2022-10-31T10:53:53;18.30;62.60
52963;DHT22;38827;53.024;6.596;2022-10-31T10:57:04;18.70;62.10
52963;DHT22;38827;53.024;6.596;2022-10-31T10:59:32;18.90;61.20
52963;DHT22;38827;53.024;6.596;2022-10-31T11:01:58;18.80;62.00
52963;DHT22;38827;53.024;6.596;2022-10-31T11:04:32;18.60;62.40
52963;DHT22;38827;53.024;6.596;2022-10-31T11:07:10;18.50;62.70
52963;DHT22;38827;53.024;6.596;2022-10-31T11:09:36;18.30;63.00
52963;DHT22;38827;53.024;6.596;2022-10-31T11:12:32;18.10;63.60
52963;DHT22;38827;53.024;6.596;2022-10-31T11:14:59;18.00;63.60
52963;DHT22;38827;53.024;6.596;2022-10-31T11:17:31;17.80;64.10
52963;DHT22;38827;53.024;6.596;2022-10-31T11:22:31;17.70;64.70
52963;DHT22;38827;53.024;6.596;2022-10-31T11:24:56;17.60;65.00
52963;DHT22;38827;53.024;6.596;2022-10-31T11:27:24;17.50;65.00
52963;DHT22;38827;53.024;6.596;2022-10-31T11:29:50;17.40;64.90
52963;DHT22;38827;53.024;6.596;2022-10-31T11:32:22;17.40;64.70
52963;DHT22;38827;53.024;6.596;2022-10-31T11:34:59;17.30;64.80
52963;DHT22;38827;53.024;6.596;2022-10-31T11:37:35;17.30;65.10
52963;DHT22;38827;53.024;6.596;2022-10-31T11:40:06;17.30;65.30
52963;DHT22;38827;53.024;6.596;2022-10-31T11:42:40;17.30;65.50
52963;DHT22;38827;53.024;6.596;2022-10-31T11:47:51;17.60;64.80
52963;DHT22;38827;53.024;6.596;2022-10-31T11:50:27;17.60;65.10
52963;DHT22;38827;53.024;6.596;2022-10-31T11:52:54;17.60;65.20
52963;DHT22;38827;53.024;6.596;2022-10-31T11:55:38;17.60;64.90
52963;DHT22;38827;53.024;6.596;2022-10-31T11:58:04;17.70;63.90
52963;DHT22;38827;53.024;6.596;2022-10-31T12:00:38;17.60;64.00
52963;DHT22;38827;53.024;6.596;2022-10-31T12:03:27;17.50;63.80
52963;DHT22;38827;53.024;6.596;2022-10-31T12:06:22;17.40;63.90
52963;DHT22;38827;53.024;6.596;2022-10-31T12:08:49;17.40;63.80
52963;DHT22;38827;53.024;6.596;2022-10-31T12:14:32;17.20;64.60
52963;DHT22;38827;53.024;6.596;2022-10-31T12:23:03;17.10;64.90
52963;DHT22;38827;53.024;6.596;2022-10-31T12:25:43;17.10;65.30
52963;DHT22;38827;53.024;6.596;2022-10-31T12:33:56;17.10;65.90
52963;DHT22;38827;53.024;6.596;2022-10-31T12:36:37;17.00;66.10
52963;DHT22;38827;53.024;6.596;2022-10-31T12:53:23;17.10;65.90
52963;DHT22;38827;53.024;6.596;2022-10-31T13:01:47;17.30;65.60
52963;DHT22;38827;53.024;6.596;2022-10-31T13:04:18;17.20;65.70
52963;DHT22;38827;53.024;6.596;2022-10-31T13:06:53;17.20;65.80
52963;DHT22;38827;53.024;6.596;2022-10-31T13:09:27;17.20;65.60
52963;DHT22;38827;53.024;6.596;2022-10-31T13:12:03;17.10;66.10
52963;DHT22;38827;53.024;6.596;2022-10-31T13:14:39;17.10;66.50
52963;DHT22;38827;53.024;6.596;2022-10-31T13:20:18;17.30;66.20
52963;DHT22;38827;53.024;6.596;2022-10-31T13:22:48;17.40;66.10
52963;DHT22;38827;53.024;6.596;2022-10-31T13:25:38;17.40;65.80
52963;DHT22;38827;53.024;6.596;2022-10-31T13:28:38;17.50;65.20
52963;DHT22;38827;53.024;6.596;2022-10-31T13:31:08;17.50;65.10
52963;DHT22;38827;53.024;6.596;2022-10-31T13:34:01;17.60;65.30
52963;DHT22;38827;53.024;6.596;2022-10-31T13:44:41;18.00;63.70
52963;DHT22;38827;53.024;6.596;2022-10-31T13:47:26;17.90;64.20
52963;DHT22;38827;53.024;6.596;2022-10-31T13:50:04;17.90;64.10
52963;DHT22;38827;53.024;6.596;2022-10-31T13:52:33;17.90;64.30
52963;DHT22;38827;53.024;6.596;2022-10-31T13:54:58;17.80;64.60
52963;DHT22;38827;53.024;6.596;2022-10-31T13:57:43;17.80;64.70
52963;DHT22;38827;53.024;6.596;2022-10-31T14:00:24;17.90;64.60
52963;DHT22;38827;53.024;6.596;2022-10-31T14:02:57;17.80;64.60
52963;DHT22;38827;53.024;6.596;2022-10-31T14:05:30;17.80;64.80
52963;DHT22;38827;53.024;6.596;2022-10-31T14:07:59;17.80;64.80
52963;DHT22;38827;53.024;6.596;2022-10-31T14:10:35;17.70;64.80
52963;DHT22;38827;53.024;6.596;2022-10-31T14:16:44;17.40;65.50
52963;DHT22;38827;53.024;6.596;2022-10-31T14:19:18;17.30;65.90
52963;DHT22;38827;53.024;6.596;2022-10-31T14:21:51;17.20;66.40
52963;DHT22;38827;53.024;6.596;2022-10-31T14:24:35;17.10;66.70
52963;DHT22;38827;53.024;6.596;2022-10-31T14:30:57;16.90;67.30
52963;DHT22;38827;53.024;6.596;2022-10-31T14:33:30;16.90;67.70
52963;DHT22;38827;53.024;6.596;2022-10-31T14:36:24;16.90;67.70
52963;DHT22;38827;53.024;6.596;2022-10-31T14:38:56;17.00;67.70
52963;DHT22;38827;53.024;6.596;2022-10-31T14:50:44;17.00;67.80
52963;DHT22;38827;53.024;6.596;2022-10-31T14:53:28;16.90;67.90
52963;DHT22;38827;53.024;6.596;2022-10-31T14:56:10;16.90;68.10
52963;DHT22;38827;53.024;6.596;2022-10-31T14:58:47;16.70;68.50
52963;DHT22;38827;53.024;6.596;2022-10-31T15:01:26;16.70;68.80
52963;DHT22;38827;53.024;6.596;2022-10-31T15:03:58;16.60;69.10
52963;DHT22;38827;53.024;6.596;2022-10-31T15:06:26;16.50;69.50
52963;DHT22;38827;53.024;6.596;2022-10-31T15:08:55;16.50;69.70
52963;DHT22;38827;53.024;6.596;2022-10-31T15:11:24;16.40;70.00
52963;DHT22;38827;53.024;6.596;2022-10-31T15:13:52;16.30;70.20
52963;DHT22;38827;53.024;6.596;2022-10-31T15:16:25;16.20;70.60
52963;DHT22;38827;53.024;6.596;2022-10-31T15:18:54;16.20;70.70
52963;DHT22;38827;53.024;6.596;2022-10-31T15:21:22;16.10;71.10
52963;DHT22;38827;53.024;6.596;2022-10-31T15:23:54;16.10;71.40
52963;DHT22;38827;53.024;6.596;2022-10-31T15:26:23;16.10;71.70
52963;DHT22;38827;53.024;6.596;2022-10-31T15:29:18;16.00;71.90
52963;DHT22;38827;53.024;6.596;2022-10-31T15:32:18;16.00;71.90
52963;DHT22;38827;53.024;6.596;2022-10-31T15:34:44;16.00;72.10
52963;DHT22;38827;53.024;6.596;2022-10-31T15:37:15;15.90;72.30
52963;DHT22;38827;53.024;6.596;2022-10-31T15:39:41;15.90;72.50
52963;DHT22;38827;53.024;6.596;2022-10-31T15:42:28;15.80;72.60
52963;DHT22;38827;53.024;6.596;2022-10-31T15:45:03;15.80;72.70
52963;DHT22;38827;53.024;6.596;2022-10-31T15:47:31;15.70;72.80
52963;DHT22;38827;53.024;6.596;2022-10-31T15:49:59;15.60;72.90
52963;DHT22;38827;53.024;6.596;2022-10-31T15:52:35;15.60;72.90
52963;DHT22;38827;53.024;6.596;2022-10-31T15:57:52;15.40;73.10
52963;DHT22;38827;53.024;6.596;2022-10-31T16:00:28;15.30;73.00
52963;DHT22;38827;53.024;6.596;2022-10-31T16:05:36;15.20;73.30
52963;DHT22;38827;53.024;6.596;2022-10-31T16:08:02;15.20;73.40
52963;DHT22;38827;53.024;6.596;2022-10-31T16:10:32;15.10;73.50
52963;DHT22;38827;53.024;6.596;2022-10-31T16:13:00;15.10;73.60
52963;DHT22;38827;53.024;6.596;2022-10-31T16:15:27;15.00;73.70
52963;DHT22;38827;53.024;6.596;2022-10-31T16:17:53;15.00;73.80
52963;DHT22;38827;53.024;6.596;2022-10-31T16:20:25;14.90;73.80
52963;DHT22;38827;53.024;6.596;2022-10-31T16:22:52;14.90;73.90
52963;DHT22;38827;53.024;6.596;2022-10-31T16:25:46;14.80;74.00
52963;DHT22;38827;53.024;6.596;2022-10-31T16:28:31;14.80;74.00
52963;DHT22;38827;53.024;6.596;2022-10-31T16:30:58;14.70;74.20
52963;DHT22;38827;53.024;6.596;2022-10-31T16:33:31;14.70;74.20
52963;DHT22;38827;53.024;6.596;2022-10-31T16:38:57;14.60;74.40
52963;DHT22;38827;53.024;6.596;2022-10-31T16:41:23;14.50;74.60
52963;DHT22;38827;53.024;6.596;2022-10-31T16:43:50;14.50;74.70
52963;DHT22;38827;53.024;6.596;2022-10-31T16:46:20;14.50;74.90
52963;DHT22;38827;53.024;6.596;2022-10-31T16:48:47;14.50;75.10
52963;DHT22;38827;53.024;6.596;2022-10-31T16:51:18;14.40;75.20
52963;DHT22;38827;53.024;6.596;2022-10-31T16:53:44;14.40;75.40
52963;DHT22;38827;53.024;6.596;2022-10-31T16:56:30;14.40;75.50
52963;DHT22;38827;53.024;6.596;2022-10-31T16:58:58;14.40;75.70
52963;DHT22;38827;53.024;6.596;2022-10-31T17:01:24;14.30;75.70
52963;DHT22;38827;53.024;6.596;2022-10-31T17:03:50;14.30;75.90
52963;DHT22;38827;53.024;6.596;2022-10-31T17:06:15;14.30;75.90
52963;DHT22;38827;53.024;6.596;2022-10-31T17:08:41;14.30;76.00
52963;DHT22;38827;53.024;6.596;2022-10-31T17:11:15;14.30;76.30
52963;DHT22;38827;53.024;6.596;2022-10-31T17:13:42;14.30;76.40
52963;DHT22;38827;53.024;6.596;2022-10-31T17:16:08;14.20;76.60
52963;DHT22;38827;53.024;6.596;2022-10-31T17:18:33;14.20;76.70
52963;DHT22;38827;53.024;6.596;2022-10-31T17:21:01;14.20;76.80
52963;DHT22;38827;53.024;6.596;2022-10-31T17:23:27;14.20;77.00
52963;DHT22;38827;53.024;6.596;2022-10-31T17:25:54;14.20;77.20
52963;DHT22;38827;53.024;6.596;2022-10-31T17:28:20;14.20;77.20
52963;DHT22;38827;53.024;6.596;2022-10-31T17:30:46;14.10;77.40
52963;DHT22;38827;53.024;6.596;2022-10-31T17:33:13;14.10;77.70
52963;DHT22;38827;53.024;6.596;2022-10-31T17:35:42;14.10;77.90
52963;DHT22;38827;53.024;6.596;2022-10-31T17:38:09;14.10;78.00
52963;DHT22;38827;53.024;6.596;2022-10-31T17:40:36;14.10;78.40
52963;DHT22;38827;53.024;6.596;2022-10-31T17:43:03;14.10;78.10
52963;DHT22;38827;53.024;6.596;2022-10-31T17:45:28;14.10;78.20
52963;DHT22;38827;53.024;6.596;2022-10-31T17:47:54;14.10;78.30
52963;DHT22;38827;53.024;6.596;2022-10-31T17:50:22;14.20;78.50
52963;DHT22;38827;53.024;6.596;2022-10-31T17:52:48;14.20;78.70
52963;DHT22;38827;53.024;6.596;2022-10-31T17:55:15;14.20;78.80
52963;DHT22;38827;53.024;6.596;2022-10-31T17:57:42;14.20;78.90
52963;DHT22;38827;53.024;6.596;2022-10-31T18:00:14;14.20;79.00
52963;DHT22;38827;53.024;6.596;2022-10-31T18:02:41;14.20;79.30
52963;DHT22;38827;53.024;6.596;2022-10-31T18:05:07;14.10;79.30
52963;DHT22;38827;53.024;6.596;2022-10-31T18:07:33;14.20;79.40
52963;DHT22;38827;53.024;6.596;2022-10-31T18:09:59;14.10;79.60
52963;DHT22;38827;53.024;6.596;2022-10-31T18:12:27;14.20;79.60
52963;DHT22;38827;53.024;6.596;2022-10-31T18:14:53;14.20;79.80
52963;DHT22;38827;53.024;6.596;2022-10-31T18:17:20;14.10;79.90
52963;DHT22;38827;53.024;6.596;2022-10-31T18:19:47;14.10;80.00